sensor_id;sensor_type;location;lat;lon;timestamp;P1;durP1;ratioP1;P2;durP2;ratioP2
15645;SDS011;7922;43.622;1.476;2023-11-21T00:02:14;9.33;;;2.67;;
15645;SDS011;7922;43.622;1.476;2023-11-21T00:04:40;13.00;;;3.30;;
15645;SDS011;7922;43.622;1.476;2023-11-21T00:07:05;7.83;;;2.30;;
15645;SDS011;7922;43.622;1.476;2023-11-21T00:09:30;12.43;;;2.97;;
15645;SDS011;7922;43.622;1.476;2023-11-21T00:11:55;13.90;;;3.10;;
15645;SDS011;7922;43.622;1.476;2023-11-21T00:14:21;12.60;;;2.97;;
15645;SDS011;7922;43.622;1.476;2023-11-21T00:16:46;9.73;;;2.50;;
15645;SDS011;7922;43.622;1.476;2023-11-21T00:19:11;9.43;;;2.93;;
15645;SDS011;7922;43.622;1.476;2023-11-21T00:21:37;9.20;;;2.63;;
15645;SDS011;7922;43.622;1.476;2023-11-21T00:24:02;12.10;;;3.07;;
15645;SDS011;7922;43.622;1.476;2023-11-21T00:26:27;8.60;;;2.57;;
15645;SDS011;7922;43.622;1.476;2023-11-21T00:28:53;7.07;;;2.20;;
15645;SDS011;7922;43.622;1.476;2023-11-21T00:31:18;9.77;;;2.70;;
15645;SDS011;7922;43.622;1.476;2023-11-21T00:33:43;9.57;;;2.50;;
15645;SDS011;7922;43.622;1.476;2023-11-21T00:36:09;9.67;;;2.83;;
15645;SDS011;7922;43.622;1.476;2023-11-21T00:38:34;11.00;;;2.50;;
15645;SDS011;7922;43.622;1.476;2023-11-21T00:41:00;6.50;;;2.90;;
15645;SDS011;7922;43.622;1.476;2023-11-21T00:43:25;10.07;;;2.43;;
15645;SDS011;7922;43.622;1.476;2023-11-21T00:45:51;9.83;;;3.20;;
15645;SDS011;7922;43.622;1.476;2023-11-21T00:48:16;9.23;;;2.60;;
15645;SDS011;7922;43.622;1.476;2023-11-21T00:50:41;9.83;;;2.40;;
15645;SDS011;7922;43.622;1.476;2023-11-21T00:53:07;8.83;;;2.80;;
15645;SDS011;7922;43.622;1.476;2023-11-21T00:55:32;8.10;;;2.17;;
15645;SDS011;7922;43.622;1.476;2023-11-21T00:57:58;8.03;;;2.23;;
15645;SDS011;7922;43.622;1.476;2023-11-21T01:00:24;11.07;;;2.10;;
15645;SDS011;7922;43.622;1.476;2023-11-21T01:02:49;10.70;;;2.53;;
15645;SDS011;7922;43.622;1.476;2023-11-21T01:05:14;7.13;;;2.17;;
15645;SDS011;7922;43.622;1.476;2023-11-21T01:07:40;9.17;;;2.60;;
15645;SDS011;7922;43.622;1.476;2023-11-21T01:10:05;10.20;;;2.47;;
15645;SDS011;7922;43.622;1.476;2023-11-21T01:12:31;7.03;;;2.17;;
15645;SDS011;7922;43.622;1.476;2023-11-21T01:14:56;11.70;;;2.20;;
15645;SDS011;7922;43.622;1.476;2023-11-21T01:17:21;8.37;;;2.87;;
15645;SDS011;7922;43.622;1.476;2023-11-21T01:19:47;9.93;;;1.87;;
15645;SDS011;7922;43.622;1.476;2023-11-21T01:22:12;5.87;;;2.20;;
15645;SDS011;7922;43.622;1.476;2023-11-21T01:24:37;5.83;;;1.93;;
15645;SDS011;7922;43.622;1.476;2023-11-21T01:27:02;7.73;;;2.20;;
15645;SDS011;7922;43.622;1.476;2023-11-21T01:29:28;10.03;;;2.37;;
15645;SDS011;7922;43.622;1.476;2023-11-21T01:31:53;10.00;;;2.10;;
15645;SDS011;7922;43.622;1.476;2023-11-21T01:34:18;8.20;;;2.40;;
15645;SDS011;7922;43.622;1.476;2023-11-21T01:36:45;9.33;;;2.60;;
15645;SDS011;7922;43.622;1.476;2023-11-21T01:39:11;7.03;;;2.00;;
15645;SDS011;7922;43.622;1.476;2023-11-21T01:41:36;6.70;;;2.50;;
15645;SDS011;7922;43.622;1.476;2023-11-21T01:44:01;9.13;;;2.90;;
15645;SDS011;7922;43.622;1.476;2023-11-21T01:46:27;10.77;;;2.27;;
15645;SDS011;7922;43.622;1.476;2023-11-21T01:48:52;4.33;;;2.03;;
15645;SDS011;7922;43.622;1.476;2023-11-21T01:51:18;7.67;;;1.63;;
15645;SDS011;7922;43.622;1.476;2023-11-21T01:53:44;5.27;;;1.70;;
15645;SDS011;7922;43.622;1.476;2023-11-21T01:56:09;7.77;;;1.87;;
15645;SDS011;7922;43.622;1.476;2023-11-21T01:58:35;5.80;;;1.60;;
15645;SDS011;7922;43.622;1.476;2023-11-21T02:01:00;4.70;;;1.53;;
15645;SDS011;7922;43.622;1.476;2023-11-21T02:03:25;2.27;;;1.53;;
15645;SDS011;7922;43.622;1.476;2023-11-21T02:05:51;7.53;;;1.90;;
15645;SDS011;7922;43.622;1.476;2023-11-21T02:08:17;6.10;;;1.50;;
15645;SDS011;7922;43.622;1.476;2023-11-21T02:10:42;6.33;;;1.80;;
15645;SDS011;7922;43.622;1.476;2023-11-21T02:13:07;7.60;;;1.70;;
15645;SDS011;7922;43.622;1.476;2023-11-21T02:15:33;14.17;;;2.07;;
15645;SDS011;7922;43.622;1.476;2023-11-21T02:17:58;7.17;;;1.70;;
15645;SDS011;7922;43.622;1.476;2023-11-21T02:20:24;4.53;;;1.50;;
15645;SDS011;7922;43.622;1.476;2023-11-21T02:22:56;9.73;;;1.90;;
15645;SDS011;7922;43.622;1.476;2023-11-21T02:25:22;7.03;;;1.80;;
15645;SDS011;7922;43.622;1.476;2023-11-21T02:27:47;6.90;;;1.73;;
15645;SDS011;7922;43.622;1.476;2023-11-21T02:30:12;9.10;;;2.50;;
15645;SDS011;7922;43.622;1.476;2023-11-21T02:32:38;7.57;;;2.10;;
15645;SDS011;7922;43.622;1.476;2023-11-21T02:35:03;8.13;;;2.13;;
15645;SDS011;7922;43.622;1.476;2023-11-21T02:37:29;6.40;;;2.27;;
15645;SDS011;7922;43.622;1.476;2023-11-21T02:39:54;7.60;;;1.87;;
15645;SDS011;7922;43.622;1.476;2023-11-21T02:42:19;6.20;;;2.30;;
15645;SDS011;7922;43.622;1.476;2023-11-21T02:44:45;5.77;;;2.30;;
15645;SDS011;7922;43.622;1.476;2023-11-21T02:47:10;4.90;;;1.50;;
15645;SDS011;7922;43.622;1.476;2023-11-21T02:49:35;6.50;;;1.67;;
15645;SDS011;7922;43.622;1.476;2023-11-21T02:52:01;5.30;;;1.57;;
15645;SDS011;7922;43.622;1.476;2023-11-21T02:54:27;7.63;;;1.50;;
15645;SDS011;7922;43.622;1.476;2023-11-21T02:56:52;7.77;;;1.40;;
15645;SDS011;7922;43.622;1.476;2023-11-21T02:59:17;7.73;;;1.83;;
15645;SDS011;7922;43.622;1.476;2023-11-21T03:01:43;5.13;;;1.60;;
15645;SDS011;7922;43.622;1.476;2023-11-21T03:04:08;4.63;;;1.60;;
15645;SDS011;7922;43.622;1.476;2023-11-21T03:06:33;6.10;;;1.60;;
15645;SDS011;7922;43.622;1.476;2023-11-21T03:08:58;3.80;;;1.20;;
15645;SDS011;7922;43.622;1.476;2023-11-21T03:11:24;4.00;;;1.43;;
15645;SDS011;7922;43.622;1.476;2023-11-21T03:13:49;5.00;;;1.50;;
15645;SDS011;7922;43.622;1.476;2023-11-21T03:16:15;5.23;;;1.50;;
15645;SDS011;7922;43.622;1.476;2023-11-21T03:18:41;7.30;;;2.03;;
15645;SDS011;7922;43.622;1.476;2023-11-21T03:21:06;8.83;;;1.70;;
15645;SDS011;7922;43.622;1.476;2023-11-21T03:23:32;5.70;;;1.57;;
15645;SDS011;7922;43.622;1.476;2023-11-21T03:25:57;5.10;;;1.50;;
15645;SDS011;7922;43.622;1.476;2023-11-21T03:28:23;4.50;;;1.40;;
15645;SDS011;7922;43.622;1.476;2023-11-21T03:30:48;3.07;;;1.70;;
15645;SDS011;7922;43.622;1.476;2023-11-21T03:33:14;4.30;;;1.33;;
15645;SDS011;7922;43.622;1.476;2023-11-21T03:35:39;7.33;;;2.03;;
15645;SDS011;7922;43.622;1.476;2023-11-21T03:38:04;5.50;;;1.60;;
15645;SDS011;7922;43.622;1.476;2023-11-21T03:40:29;3.47;;;1.60;;
15645;SDS011;7922;43.622;1.476;2023-11-21T03:42:55;9.70;;;1.67;;
15645;SDS011;7922;43.622;1.476;2023-11-21T03:45:20;4.93;;;1.30;;
15645;SDS011;7922;43.622;1.476;2023-11-21T03:47:45;7.33;;;1.67;;
15645;SDS011;7922;43.622;1.476;2023-11-21T03:50:11;4.40;;;1.50;;
15645;SDS011;7922;43.622;1.476;2023-11-21T03:52:36;6.47;;;1.60;;
15645;SDS011;7922;43.622;1.476;2023-11-21T03:55:02;4.70;;;1.63;;
15645;SDS011;7922;43.622;1.476;2023-11-21T03:57:27;7.70;;;1.50;;
15645;SDS011;7922;43.622;1.476;2023-11-21T03:59:53;5.57;;;1.50;;
15645;SDS011;7922;43.622;1.476;2023-11-21T04:02:18;4.70;;;1.27;;
15645;SDS011;7922;43.622;1.476;2023-11-21T04:04:43;5.43;;;1.80;;
15645;SDS011;7922;43.622;1.476;2023-11-21T04:07:09;7.53;;;2.00;;
15645;SDS011;7922;43.622;1.476;2023-11-21T04:09:34;7.80;;;2.07;;
15645;SDS011;7922;43.622;1.476;2023-11-21T04:11:59;7.43;;;1.80;;
15645;SDS011;7922;43.622;1.476;2023-11-21T04:14:25;5.73;;;1.50;;
15645;SDS011;7922;43.622;1.476;2023-11-21T04:16:50;8.00;;;1.43;;
15645;SDS011;7922;43.622;1.476;2023-11-21T04:19:15;7.03;;;2.77;;
15645;SDS011;7922;43.622;1.476;2023-11-21T04:21:41;7.20;;;1.80;;
15645;SDS011;7922;43.622;1.476;2023-11-21T04:24:07;4.23;;;1.60;;
15645;SDS011;7922;43.622;1.476;2023-11-21T04:26:32;5.33;;;1.43;;
15645;SDS011;7922;43.622;1.476;2023-11-21T04:28:58;6.63;;;1.57;;
15645;SDS011;7922;43.622;1.476;2023-11-21T04:31:23;7.40;;;1.77;;
15645;SDS011;7922;43.622;1.476;2023-11-21T04:33:48;8.10;;;1.80;;
15645;SDS011;7922;43.622;1.476;2023-11-21T04:36:13;7.50;;;1.57;;
15645;SDS011;7922;43.622;1.476;2023-11-21T04:38:39;4.63;;;1.63;;
15645;SDS011;7922;43.622;1.476;2023-11-21T04:41:04;9.17;;;2.40;;
15645;SDS011;7922;43.622;1.476;2023-11-21T04:43:29;4.03;;;1.50;;
15645;SDS011;7922;43.622;1.476;2023-11-21T04:45:55;8.33;;;1.83;;
15645;SDS011;7922;43.622;1.476;2023-11-21T04:48:20;6.63;;;1.57;;
15645;SDS011;7922;43.622;1.476;2023-11-21T04:50:45;7.73;;;1.47;;
15645;SDS011;7922;43.622;1.476;2023-11-21T04:53:11;5.50;;;1.40;;
15645;SDS011;7922;43.622;1.476;2023-11-21T04:55:36;6.87;;;1.40;;
15645;SDS011;7922;43.622;1.476;2023-11-21T04:58:01;9.23;;;1.77;;
15645;SDS011;7922;43.622;1.476;2023-11-21T05:00:26;8.07;;;1.67;;
15645;SDS011;7922;43.622;1.476;2023-11-21T05:02:52;5.33;;;1.77;;
15645;SDS011;7922;43.622;1.476;2023-11-21T05:05:17;8.53;;;1.93;;
15645;SDS011;7922;43.622;1.476;2023-11-21T05:07:42;4.10;;;1.77;;
15645;SDS011;7922;43.622;1.476;2023-11-21T05:10:09;5.10;;;1.70;;
15645;SDS011;7922;43.622;1.476;2023-11-21T05:12:35;7.67;;;1.90;;
15645;SDS011;7922;43.622;1.476;2023-11-21T05:15:00;6.90;;;1.57;;
15645;SDS011;7922;43.622;1.476;2023-11-21T05:17:25;5.97;;;1.67;;
15645;SDS011;7922;43.622;1.476;2023-11-21T05:19:50;6.97;;;1.63;;
15645;SDS011;7922;43.622;1.476;2023-11-21T05:22:16;6.43;;;1.57;;
15645;SDS011;7922;43.622;1.476;2023-11-21T05:24:41;6.87;;;1.60;;
15645;SDS011;7922;43.622;1.476;2023-11-21T05:27:06;6.77;;;1.50;;
15645;SDS011;7922;43.622;1.476;2023-11-21T05:29:31;9.33;;;1.93;;
15645;SDS011;7922;43.622;1.476;2023-11-21T05:31:57;6.17;;;1.70;;
15645;SDS011;7922;43.622;1.476;2023-11-21T05:34:22;6.13;;;1.30;;
15645;SDS011;7922;43.622;1.476;2023-11-21T05:36:47;4.00;;;1.37;;
15645;SDS011;7922;43.622;1.476;2023-11-21T05:39:13;5.33;;;1.33;;
15645;SDS011;7922;43.622;1.476;2023-11-21T05:41:39;4.93;;;1.40;;
15645;SDS011;7922;43.622;1.476;2023-11-21T05:44:04;6.23;;;1.70;;
15645;SDS011;7922;43.622;1.476;2023-11-21T05:46:29;7.70;;;1.70;;
15645;SDS011;7922;43.622;1.476;2023-11-21T05:48:55;4.83;;;1.40;;
15645;SDS011;7922;43.622;1.476;2023-11-21T05:51:20;5.50;;;1.73;;
15645;SDS011;7922;43.622;1.476;2023-11-21T05:53:45;8.63;;;2.03;;
15645;SDS011;7922;43.622;1.476;2023-11-21T05:56:10;8.07;;;1.50;;
15645;SDS011;7922;43.622;1.476;2023-11-21T05:58:36;4.07;;;1.20;;
15645;SDS011;7922;43.622;1.476;2023-11-21T06:01:01;3.63;;;1.43;;
15645;SDS011;7922;43.622;1.476;2023-11-21T06:03:30;7.07;;;1.97;;
15645;SDS011;7922;43.622;1.476;2023-11-21T06:05:55;6.87;;;1.63;;
15645;SDS011;7922;43.622;1.476;2023-11-21T06:08:21;7.70;;;2.03;;
15645;SDS011;7922;43.622;1.476;2023-11-21T06:10:46;7.93;;;1.43;;
15645;SDS011;7922;43.622;1.476;2023-11-21T06:13:11;7.87;;;1.80;;
15645;SDS011;7922;43.622;1.476;2023-11-21T06:15:36;4.73;;;1.70;;
15645;SDS011;7922;43.622;1.476;2023-11-21T06:18:02;4.70;;;1.63;;
15645;SDS011;7922;43.622;1.476;2023-11-21T06:20:27;4.33;;;2.00;;
15645;SDS011;7922;43.622;1.476;2023-11-21T06:22:53;4.23;;;1.33;;
15645;SDS011;7922;43.622;1.476;2023-11-21T06:25:19;6.63;;;1.87;;
15645;SDS011;7922;43.622;1.476;2023-11-21T06:27:48;6.80;;;1.43;;
15645;SDS011;7922;43.622;1.476;2023-11-21T06:30:14;5.00;;;1.67;;
15645;SDS011;7922;43.622;1.476;2023-11-21T06:32:39;3.17;;;1.20;;
15645;SDS011;7922;43.622;1.476;2023-11-21T06:35:05;4.57;;;1.57;;
15645;SDS011;7922;43.622;1.476;2023-11-21T06:37:31;2.90;;;1.00;;
15645;SDS011;7922;43.622;1.476;2023-11-21T06:39:59;5.83;;;1.60;;
15645;SDS011;7922;43.622;1.476;2023-11-21T06:42:25;5.57;;;1.60;;
15645;SDS011;7922;43.622;1.476;2023-11-21T06:44:51;3.53;;;1.40;;
15645;SDS011;7922;43.622;1.476;2023-11-21T06:47:17;5.57;;;1.40;;
15645;SDS011;7922;43.622;1.476;2023-11-21T06:49:45;4.80;;;1.83;;
15645;SDS011;7922;43.622;1.476;2023-11-21T06:52:11;3.03;;;1.40;;
15645;SDS011;7922;43.622;1.476;2023-11-21T06:54:36;5.03;;;1.77;;
15645;SDS011;7922;43.622;1.476;2023-11-21T06:57:02;3.50;;;1.80;;
15645;SDS011;7922;43.622;1.476;2023-11-21T06:59:30;4.83;;;1.40;;
15645;SDS011;7922;43.622;1.476;2023-11-21T07:01:55;4.43;;;1.53;;
15645;SDS011;7922;43.622;1.476;2023-11-21T07:04:21;7.53;;;1.77;;
15645;SDS011;7922;43.622;1.476;2023-11-21T07:06:46;6.87;;;1.73;;
15645;SDS011;7922;43.622;1.476;2023-11-21T07:09:11;4.97;;;1.80;;
15645;SDS011;7922;43.622;1.476;2023-11-21T07:11:37;4.97;;;1.57;;
15645;SDS011;7922;43.622;1.476;2023-11-21T07:14:02;6.20;;;2.20;;
15645;SDS011;7922;43.622;1.476;2023-11-21T07:16:27;3.80;;;1.50;;
15645;SDS011;7922;43.622;1.476;2023-11-21T07:18:53;5.83;;;1.60;;
15645;SDS011;7922;43.622;1.476;2023-11-21T07:21:18;4.30;;;1.77;;
15645;SDS011;7922;43.622;1.476;2023-11-21T07:23:43;4.17;;;1.50;;
15645;SDS011;7922;43.622;1.476;2023-11-21T07:26:09;2.90;;;1.70;;
15645;SDS011;7922;43.622;1.476;2023-11-21T07:28:34;4.77;;;1.90;;
15645;SDS011;7922;43.622;1.476;2023-11-21T07:31:00;5.57;;;2.10;;
15645;SDS011;7922;43.622;1.476;2023-11-21T07:33:25;4.40;;;1.50;;
15645;SDS011;7922;43.622;1.476;2023-11-21T07:35:50;3.00;;;1.50;;
15645;SDS011;7922;43.622;1.476;2023-11-21T07:38:16;2.80;;;1.50;;
15645;SDS011;7922;43.622;1.476;2023-11-21T07:40:41;2.70;;;1.60;;
15645;SDS011;7922;43.622;1.476;2023-11-21T07:43:06;5.20;;;1.80;;
15645;SDS011;7922;43.622;1.476;2023-11-21T07:45:31;3.37;;;1.50;;
15645;SDS011;7922;43.622;1.476;2023-11-21T07:47:57;4.27;;;1.73;;
15645;SDS011;7922;43.622;1.476;2023-11-21T07:50:22;4.57;;;1.73;;
15645;SDS011;7922;43.622;1.476;2023-11-21T07:52:47;2.43;;;1.77;;
15645;SDS011;7922;43.622;1.476;2023-11-21T07:55:13;6.03;;;1.60;;
15645;SDS011;7922;43.622;1.476;2023-11-21T07:57:38;2.57;;;1.77;;
15645;SDS011;7922;43.622;1.476;2023-11-21T08:00:04;3.23;;;1.40;;
15645;SDS011;7922;43.622;1.476;2023-11-21T08:02:30;4.80;;;1.70;;
15645;SDS011;7922;43.622;1.476;2023-11-21T08:04:56;6.33;;;2.10;;
15645;SDS011;7922;43.622;1.476;2023-11-21T08:07:21;3.20;;;1.60;;
15645;SDS011;7922;43.622;1.476;2023-11-21T08:09:46;3.33;;;1.73;;
15645;SDS011;7922;43.622;1.476;2023-11-21T08:12:11;4.50;;;1.90;;
15645;SDS011;7922;43.622;1.476;2023-11-21T08:14:37;3.40;;;1.50;;
15645;SDS011;7922;43.622;1.476;2023-11-21T08:17:02;3.87;;;2.00;;
15645;SDS011;7922;43.622;1.476;2023-11-21T08:19:28;2.70;;;1.50;;
15645;SDS011;7922;43.622;1.476;2023-11-21T08:21:53;3.63;;;1.70;;
15645;SDS011;7922;43.622;1.476;2023-11-21T08:24:18;3.03;;;1.37;;
15645;SDS011;7922;43.622;1.476;2023-11-21T08:26:43;2.30;;;1.50;;
15645;SDS011;7922;43.622;1.476;2023-11-21T08:29:09;3.23;;;1.40;;
15645;SDS011;7922;43.622;1.476;2023-11-21T08:31:34;2.40;;;1.40;;
15645;SDS011;7922;43.622;1.476;2023-11-21T08:33:59;6.03;;;2.00;;
15645;SDS011;7922;43.622;1.476;2023-11-21T08:36:25;3.43;;;1.70;;
15645;SDS011;7922;43.622;1.476;2023-11-21T08:38:50;4.00;;;1.40;;
15645;SDS011;7922;43.622;1.476;2023-11-21T08:41:16;4.00;;;1.87;;
15645;SDS011;7922;43.622;1.476;2023-11-21T08:43:41;2.60;;;1.57;;
15645;SDS011;7922;43.622;1.476;2023-11-21T08:46:07;3.57;;;1.50;;
15645;SDS011;7922;43.622;1.476;2023-11-21T08:48:32;3.73;;;1.50;;
15645;SDS011;7922;43.622;1.476;2023-11-21T08:50:58;4.10;;;1.63;;
15645;SDS011;7922;43.622;1.476;2023-11-21T08:53:23;1.97;;;1.50;;
15645;SDS011;7922;43.622;1.476;2023-11-21T08:55:48;5.03;;;1.50;;
15645;SDS011;7922;43.622;1.476;2023-11-21T08:58:13;4.97;;;1.70;;
15645;SDS011;7922;43.622;1.476;2023-11-21T09:00:39;3.07;;;1.77;;
15645;SDS011;7922;43.622;1.476;2023-11-21T09:03:05;5.87;;;1.90;;
15645;SDS011;7922;43.622;1.476;2023-11-21T09:05:30;3.80;;;1.67;;
15645;SDS011;7922;43.622;1.476;2023-11-21T09:07:55;4.40;;;1.77;;
15645;SDS011;7922;43.622;1.476;2023-11-21T09:10:20;2.40;;;1.23;;
15645;SDS011;7922;43.622;1.476;2023-11-21T09:12:46;7.13;;;1.60;;
15645;SDS011;7922;43.622;1.476;2023-11-21T09:15:11;4.40;;;1.60;;
15645;SDS011;7922;43.622;1.476;2023-11-21T09:17:36;3.17;;;1.27;;
15645;SDS011;7922;43.622;1.476;2023-11-21T09:20:02;2.10;;;1.47;;
15645;SDS011;7922;43.622;1.476;2023-11-21T09:22:27;2.90;;;1.80;;
15645;SDS011;7922;43.622;1.476;2023-11-21T09:24:53;4.13;;;1.60;;
15645;SDS011;7922;43.622;1.476;2023-11-21T09:27:18;5.17;;;1.27;;
15645;SDS011;7922;43.622;1.476;2023-11-21T09:29:44;3.63;;;1.50;;
15645;SDS011;7922;43.622;1.476;2023-11-21T09:32:09;4.23;;;1.70;;
15645;SDS011;7922;43.622;1.476;2023-11-21T09:34:35;5.83;;;2.03;;
15645;SDS011;7922;43.622;1.476;2023-11-21T09:37:00;2.53;;;1.53;;
15645;SDS011;7922;43.622;1.476;2023-11-21T09:39:25;5.03;;;1.63;;
15645;SDS011;7922;43.622;1.476;2023-11-21T09:41:51;3.43;;;1.40;;
15645;SDS011;7922;43.622;1.476;2023-11-21T09:44:18;4.40;;;1.30;;
15645;SDS011;7922;43.622;1.476;2023-11-21T09:46:45;2.07;;;1.30;;
15645;SDS011;7922;43.622;1.476;2023-11-21T09:49:13;3.23;;;1.30;;
15645;SDS011;7922;43.622;1.476;2023-11-21T09:51:39;2.80;;;1.27;;
15645;SDS011;7922;43.622;1.476;2023-11-21T09:54:07;1.53;;;1.00;;
15645;SDS011;7922;43.622;1.476;2023-11-21T09:56:35;2.93;;;1.40;;
15645;SDS011;7922;43.622;1.476;2023-11-21T09:59:01;3.33;;;1.50;;
15645;SDS011;7922;43.622;1.476;2023-11-21T10:01:27;2.83;;;1.30;;
15645;SDS011;7922;43.622;1.476;2023-11-21T10:03:53;2.93;;;1.40;;
15645;SDS011;7922;43.622;1.476;2023-11-21T10:06:19;2.10;;;1.30;;
15645;SDS011;7922;43.622;1.476;2023-11-21T10:08:46;1.50;;;1.10;;
15645;SDS011;7922;43.622;1.476;2023-11-21T10:11:11;1.63;;;1.30;;
15645;SDS011;7922;43.622;1.476;2023-11-21T10:13:39;2.17;;;1.30;;
15645;SDS011;7922;43.622;1.476;2023-11-21T10:16:05;1.97;;;1.30;;
15645;SDS011;7922;43.622;1.476;2023-11-21T10:18:32;1.50;;;1.10;;
15645;SDS011;7922;43.622;1.476;2023-11-21T10:20:58;1.97;;;1.00;;
15645;SDS011;7922;43.622;1.476;2023-11-21T10:23:24;3.00;;;1.40;;
15645;SDS011;7922;43.622;1.476;2023-11-21T10:25:49;1.47;;;1.20;;
15645;SDS011;7922;43.622;1.476;2023-11-21T10:28:16;3.00;;;1.40;;
15645;SDS011;7922;43.622;1.476;2023-11-21T10:30:41;2.33;;;1.23;;
15645;SDS011;7922;43.622;1.476;2023-11-21T10:33:07;1.60;;;1.20;;
15645;SDS011;7922;43.622;1.476;2023-11-21T10:35:39;1.20;;;1.00;;
15645;SDS011;7922;43.622;1.476;2023-11-21T10:38:04;1.30;;;1.20;;
15645;SDS011;7922;43.622;1.476;2023-11-21T10:40:30;1.70;;;1.20;;
15645;SDS011;7922;43.622;1.476;2023-11-21T10:42:55;1.37;;;1.10;;
15645;SDS011;7922;43.622;1.476;2023-11-21T10:45:31;1.67;;;1.03;;
15645;SDS011;7922;43.622;1.476;2023-11-21T10:47:56;1.33;;;1.00;;
15645;SDS011;7922;43.622;1.476;2023-11-21T10:50:22;1.20;;;1.07;;
15645;SDS011;7922;43.622;1.476;2023-11-21T10:52:48;1.00;;;1.00;;
15645;SDS011;7922;43.622;1.476;2023-11-21T10:55:19;2.03;;;1.30;;
15645;SDS011;7922;43.622;1.476;2023-11-21T10:57:46;2.70;;;1.40;;
15645;SDS011;7922;43.622;1.476;2023-11-21T11:00:14;1.90;;;1.67;;
15645;SDS011;7922;43.622;1.476;2023-11-21T11:02:41;2.47;;;1.40;;
15645;SDS011;7922;43.622;1.476;2023-11-21T11:05:07;1.40;;;1.20;;
15645;SDS011;7922;43.622;1.476;2023-11-21T11:07:33;1.77;;;1.47;;
15645;SDS011;7922;43.622;1.476;2023-11-21T11:10:00;1.63;;;1.30;;
15645;SDS011;7922;43.622;1.476;2023-11-21T11:12:25;2.10;;;1.57;;
15645;SDS011;7922;43.622;1.476;2023-11-21T11:14:51;1.77;;;1.60;;
15645;SDS011;7922;43.622;1.476;2023-11-21T11:17:16;1.37;;;1.00;;
15645;SDS011;7922;43.622;1.476;2023-11-21T11:19:42;2.30;;;0.90;;
15645;SDS011;7922;43.622;1.476;2023-11-21T11:33:31;1.37;;;1.10;;
15645;SDS011;7922;43.622;1.476;2023-11-21T11:38:32;1.70;;;1.57;;
15645;SDS011;7922;43.622;1.476;2023-11-21T11:40:59;2.73;;;1.90;;
15645;SDS011;7922;43.622;1.476;2023-11-21T11:43:27;2.57;;;1.40;;
15645;SDS011;7922;43.622;1.476;2023-11-21T11:45:55;2.67;;;1.53;;
15645;SDS011;7922;43.622;1.476;2023-11-21T11:48:22;3.23;;;1.80;;
15645;SDS011;7922;43.622;1.476;2023-11-21T11:53:51;3.33;;;1.77;;
15645;SDS011;7922;43.622;1.476;2023-11-21T11:56:26;3.00;;;1.47;;
15645;SDS011;7922;43.622;1.476;2023-11-21T11:58:59;2.23;;;1.40;;
15645;SDS011;7922;43.622;1.476;2023-11-21T12:01:26;1.87;;;1.47;;
15645;SDS011;7922;43.622;1.476;2023-11-21T12:06:35;3.07;;;1.27;;
15645;SDS011;7922;43.622;1.476;2023-11-21T12:09:01;2.33;;;1.40;;
15645;SDS011;7922;43.622;1.476;2023-11-21T12:11:33;2.13;;;1.60;;
15645;SDS011;7922;43.622;1.476;2023-11-21T12:13:58;3.30;;;1.33;;
15645;SDS011;7922;43.622;1.476;2023-11-21T12:16:24;1.97;;;1.33;;
15645;SDS011;7922;43.622;1.476;2023-11-21T12:18:50;1.53;;;1.43;;
15645;SDS011;7922;43.622;1.476;2023-11-21T12:21:16;2.73;;;1.30;;
15645;SDS011;7922;43.622;1.476;2023-11-21T12:23:41;2.37;;;1.40;;
15645;SDS011;7922;43.622;1.476;2023-11-21T12:26:06;2.03;;;1.40;;
15645;SDS011;7922;43.622;1.476;2023-11-21T12:28:31;1.43;;;1.30;;
15645;SDS011;7922;43.622;1.476;2023-11-21T12:30:57;2.37;;;1.70;;
15645;SDS011;7922;43.622;1.476;2023-11-21T12:33:22;2.57;;;1.43;;
15645;SDS011;7922;43.622;1.476;2023-11-21T12:35:47;1.57;;;1.30;;
15645;SDS011;7922;43.622;1.476;2023-11-21T12:38:13;1.20;;;1.10;;
15645;SDS011;7922;43.622;1.476;2023-11-21T12:40:38;2.03;;;1.33;;
15645;SDS011;7922;43.622;1.476;2023-11-21T12:43:03;2.77;;;1.30;;
15645;SDS011;7922;43.622;1.476;2023-11-21T12:45:29;2.17;;;1.60;;
15645;SDS011;7922;43.622;1.476;2023-11-21T12:47:58;2.40;;;1.70;;
15645;SDS011;7922;43.622;1.476;2023-11-21T12:50:29;2.03;;;1.80;;
15645;SDS011;7922;43.622;1.476;2023-11-21T12:53:00;2.77;;;2.50;;
15645;SDS011;7922;43.622;1.476;2023-11-21T12:55:29;1.93;;;1.63;;
15645;SDS011;7922;43.622;1.476;2023-11-21T12:57:55;3.50;;;1.70;;
15645;SDS011;7922;43.622;1.476;2023-11-21T13:00:27;2.30;;;1.47;;
15645;SDS011;7922;43.622;1.476;2023-11-21T13:02:56;1.83;;;1.20;;
15645;SDS011;7922;43.622;1.476;2023-11-21T13:07:55;2.73;;;1.50;;
15645;SDS011;7922;43.622;1.476;2023-11-21T13:10:23;1.87;;;1.47;;
15645;SDS011;7922;43.622;1.476;2023-11-21T13:12:52;1.83;;;1.43;;
15645;SDS011;7922;43.622;1.476;2023-11-21T13:15:17;2.73;;;1.40;;
15645;SDS011;7922;43.622;1.476;2023-11-21T13:17:43;1.60;;;1.50;;
15645;SDS011;7922;43.622;1.476;2023-11-21T13:20:09;2.33;;;1.70;;
15645;SDS011;7922;43.622;1.476;2023-11-21T13:22:34;2.70;;;1.90;;
15645;SDS011;7922;43.622;1.476;2023-11-21T13:25:00;3.10;;;1.50;;
15645;SDS011;7922;43.622;1.476;2023-11-21T13:27:25;1.33;;;1.20;;
15645;SDS011;7922;43.622;1.476;2023-11-21T13:29:50;3.33;;;1.80;;
15645;SDS011;7922;43.622;1.476;2023-11-21T13:32:15;2.17;;;1.70;;
15645;SDS011;7922;43.622;1.476;2023-11-21T13:34:41;1.97;;;1.33;;
15645;SDS011;7922;43.622;1.476;2023-11-21T13:37:06;1.87;;;1.50;;
15645;SDS011;7922;43.622;1.476;2023-11-21T13:39:31;3.70;;;1.70;;
15645;SDS011;7922;43.622;1.476;2023-11-21T13:41:56;2.27;;;1.70;;
15645;SDS011;7922;43.622;1.476;2023-11-21T13:44:22;2.30;;;1.50;;
15645;SDS011;7922;43.622;1.476;2023-11-21T13:46:47;1.67;;;1.40;;
15645;SDS011;7922;43.622;1.476;2023-11-21T13:49:12;3.80;;;1.90;;
15645;SDS011;7922;43.622;1.476;2023-11-21T13:51:37;4.77;;;1.70;;
15645;SDS011;7922;43.622;1.476;2023-11-21T13:54:03;1.70;;;1.40;;
15645;SDS011;7922;43.622;1.476;2023-11-21T13:56:28;3.20;;;2.40;;
15645;SDS011;7922;43.622;1.476;2023-11-21T13:58:53;3.30;;;2.60;;
15645;SDS011;7922;43.622;1.476;2023-11-21T14:01:19;2.57;;;1.90;;
15645;SDS011;7922;43.622;1.476;2023-11-21T14:03:48;4.17;;;2.00;;
15645;SDS011;7922;43.622;1.476;2023-11-21T14:06:13;3.23;;;1.97;;
15645;SDS011;7922;43.622;1.476;2023-11-21T14:08:39;2.73;;;1.80;;
15645;SDS011;7922;43.622;1.476;2023-11-21T14:11:04;3.07;;;2.17;;
15645;SDS011;7922;43.622;1.476;2023-11-21T14:13:30;3.00;;;2.20;;
15645;SDS011;7922;43.622;1.476;2023-11-21T14:15:55;2.33;;;1.70;;
15645;SDS011;7922;43.622;1.476;2023-11-21T14:18:20;3.37;;;2.00;;
15645;SDS011;7922;43.622;1.476;2023-11-21T14:20:45;3.67;;;2.10;;
15645;SDS011;7922;43.622;1.476;2023-11-21T14:23:11;3.10;;;1.90;;
15645;SDS011;7922;43.622;1.476;2023-11-21T14:25:36;3.57;;;1.90;;
15645;SDS011;7922;43.622;1.476;2023-11-21T14:28:03;2.57;;;1.83;;
15645;SDS011;7922;43.622;1.476;2023-11-21T14:30:28;1.97;;;1.70;;
15645;SDS011;7922;43.622;1.476;2023-11-21T14:32:54;2.50;;;1.83;;
15645;SDS011;7922;43.622;1.476;2023-11-21T14:35:19;2.47;;;1.90;;
15645;SDS011;7922;43.622;1.476;2023-11-21T14:37:45;2.20;;;1.70;;
15645;SDS011;7922;43.622;1.476;2023-11-21T14:40:11;2.20;;;2.00;;
15645;SDS011;7922;43.622;1.476;2023-11-21T14:42:36;4.07;;;2.00;;
15645;SDS011;7922;43.622;1.476;2023-11-21T14:45:02;3.93;;;2.00;;
15645;SDS011;7922;43.622;1.476;2023-11-21T14:47:28;2.63;;;1.83;;
15645;SDS011;7922;43.622;1.476;2023-11-21T14:49:54;3.43;;;2.20;;
15645;SDS011;7922;43.622;1.476;2023-11-21T14:52:19;3.63;;;2.37;;
15645;SDS011;7922;43.622;1.476;2023-11-21T14:54:45;2.60;;;2.40;;
15645;SDS011;7922;43.622;1.476;2023-11-21T14:57:10;3.87;;;2.20;;
15645;SDS011;7922;43.622;1.476;2023-11-21T14:59:35;2.17;;;1.97;;
15645;SDS011;7922;43.622;1.476;2023-11-21T15:02:01;3.70;;;2.00;;
15645;SDS011;7922;43.622;1.476;2023-11-21T15:04:26;2.03;;;1.53;;
15645;SDS011;7922;43.622;1.476;2023-11-21T15:06:51;2.13;;;1.83;;
15645;SDS011;7922;43.622;1.476;2023-11-21T15:09:17;2.47;;;1.80;;
15645;SDS011;7922;43.622;1.476;2023-11-21T15:11:42;2.93;;;2.00;;
15645;SDS011;7922;43.622;1.476;2023-11-21T15:14:07;2.83;;;2.00;;